Time;durP1;ratioP1;P1;durP2;ratioP2;P2;SDS_P1;SDS_P2;PMS_P1;PMS_P2;Temp;Humidity;BMP_temperature;BMP_pressure;BME280_temperature;BME280_humidity;BME280_pressure;Samples;Min_cycle;Max_cycle;Signal;HPM_P1;HPM_P2
2022/11/03 00:01:38;;;;;;;;;;;14.30;99.90;;;;;;7340542;19;110531;-89
2022/11/03 00:04:06;;;;;;;;;;;14.30;99.90;;;;;;7341077;19;108693;-89
2022/11/03 00:06:33;;;;;;;;;;;14.20;99.90;;;;;;7337365;19;112239;-88
2022/11/03 00:09:02;;;;;;;;;;;14.20;99.90;;;;;;7342507;19;112953;-88
2022/11/03 00:11:31;;;;;;;;;;;14.20;99.90;;;;;;7342948;19;108659;-87
2022/11/03 00:13:58;;;;;;;;;;;14.30;99.90;;;;;;7350190;19;109491;-88
2022/11/03 00:16:25;;;;;;;;;;;14.30;99.90;;;;;;7346442;19;108942;-88
2022/11/03 00:18:52;;;;;;;;;;;14.30;99.90;;;;;;7343428;19;109941;-88
2022/11/03 00:21:19;;;;;;;;;;;14.30;99.90;;;;;;7341799;19;110867;-88
2022/11/03 00:23:46;;;;;;;;;;;14.30;99.90;;;;;;7344956;19;108715;-89
2022/11/03 00:26:20;;;;;;;;;;;14.30;99.90;;;;;;7344145;19;110262;-89
2022/11/03 00:28:54;;;;;;;;;;;14.30;99.90;;;;;;7343906;19;110482;-88
2022/11/03 00:31:25;;;;;;;;;;;14.30;99.90;;;;;;7346308;19;110149;-87
2022/11/03 00:33:53;;;;;;;;;;;14.30;99.90;;;;;;7343045;19;110349;-88
2022/11/03 00:36:23;;;;;;;;;;;14.20;99.90;;;;;;7348236;19;109245;-87
2022/11/03 00:38:50;;;;;;;;;;;14.30;99.90;;;;;;7343297;19;111580;-88
2022/11/03 00:41:19;;;;;;;;;;;14.30;99.90;;;;;;7344132;19;110543;-90
2022/11/03 00:43:46;;;;;;;;;;;14.30;99.90;;;;;;7344407;19;108784;-89
2022/11/03 00:46:13;;;;;;;;;;;14.20;99.90;;;;;;7344179;19;111933;-88
2022/11/03 00:48:40;;;;;;;;;;;14.20;99.90;;;;;;7341952;19;109523;-88
2022/11/03 00:51:08;;;;;;;;;;;14.30;99.90;;;;;;7343243;19;109171;-88
2022/11/03 00:53:45;;;;;;;;;;;14.30;99.90;;;;;;7343567;19;108746;-89
2022/11/03 00:56:13;;;;;;;;;;;14.30;99.90;;;;;;7346433;19;109306;-88
2022/11/03 00:58:41;;;;;;;;;;;14.30;99.90;;;;;;7341910;19;109726;-87
2022/11/03 01:01:34;;;;;;;;;;;14.30;99.90;;;;;;7342888;19;110243;-89
2022/11/03 01:06:56;;;;;;;;;;;14.30;99.90;;;;;;7344821;19;112669;-88
2022/11/03 01:09:33;;;;;;;;;;;14.30;99.90;;;;;;7339800;19;113217;-89
2022/11/03 01:12:02;;;;;;;;;;;14.30;99.90;;;;;;7343670;19;108694;-87
2022/11/03 01:14:39;;;;;;;;;;;14.20;99.90;;;;;;7341043;19;109166;-88
2022/11/03 01:17:07;;;;;;;;;;;14.20;99.90;;;;;;7343153;19;109765;-88
2022/11/03 01:19:33;;;;;;;;;;;14.20;99.90;;;;;;7345097;19;108606;-90
2022/11/03 01:22:00;;;;;;;;;;;14.20;99.90;;;;;;7342604;19;111879;-88
2022/11/03 01:24:33;;;;;;;;;;;14.20;99.90;;;;;;7341614;19;109746;-88
2022/11/03 01:27:00;;;;;;;;;;;14.20;99.90;;;;;;7342830;19;109615;-88
2022/11/03 01:29:27;;;;;;;;;;;14.20;99.90;;;;;;7339680;19;113673;-88
2022/11/03 01:31:54;;;;;;;;;;;14.20;99.90;;;;;;7344537;19;108862;-89
2022/11/03 01:34:21;;;;;;;;;;;14.20;99.90;;;;;;7338922;19;109600;-89
2022/11/03 01:36:48;;;;;;;;;;;14.20;99.90;;;;;;7341114;19;110561;-89
2022/11/03 01:39:16;;;;;;;;;;;14.20;99.90;;;;;;7338848;19;109045;-88
2022/11/03 01:41:44;;;;;;;;;;;14.10;99.90;;;;;;7348167;19;112539;-87
2022/11/03 01:44:11;;;;;;;;;;;14.10;99.90;;;;;;7341083;19;108688;-88
2022/11/03 01:46:53;;;;;;;;;;;14.10;99.90;;;;;;7340109;19;108742;-88
2022/11/03 01:49:32;;;;;;;;;;;14.10;99.90;;;;;;7340531;19;109972;-88
2022/11/03 01:52:02;;;;;;;;;;;14.10;99.90;;;;;;7342330;19;108532;-87
2022/11/03 01:54:29;;;;;;;;;;;14.00;99.90;;;;;;7342137;19;109305;-88
2022/11/03 01:56:57;;;;;;;;;;;14.00;99.90;;;;;;7343003;19;110013;-87
2022/11/03 01:59:24;;;;;;;;;;;14.00;99.90;;;;;;7340519;19;108383;-87
2022/11/03 02:01:51;;;;;;;;;;;14.00;99.90;;;;;;7340661;19;108906;-88
2022/11/03 02:04:29;;;;;;;;;;;14.00;99.90;;;;;;7345016;19;109998;-88
2022/11/03 02:07:06;;;;;;;;;;;14.00;99.90;;;;;;7339781;19;119707;-89
2022/11/03 02:09:33;;;;;;;;;;;14.00;99.90;;;;;;7341580;19;109817;-89
2022/11/03 02:12:06;;;;;;;;;;;14.00;99.90;;;;;;7342146;19;108487;-88
2022/11/03 02:14:36;;;;;;;;;;;14.00;99.90;;;;;;7344137;19;109083;-89
2022/11/03 02:17:05;;;;;;;;;;;14.00;99.90;;;;;;7344463;19;109901;-88
2022/11/03 02:19:38;;;;;;;;;;;13.90;99.90;;;;;;7346657;19;108514;-89
2022/11/03 02:22:19;;;;;;;;;;;14.00;99.90;;;;;;7347909;19;108307;-90
2022/11/03 02:24:49;;;;;;;;;;;14.00;99.90;;;;;;7351360;19;109784;-89
2022/11/03 02:27:20;;;;;;;;;;;14.00;99.90;;;;;;7375571;19;108029;-89
2022/11/03 02:29:47;;;;;;;;;;;14.00;99.90;;;;;;7365719;19;109560;-88
2022/11/03 02:32:25;;;;;;;;;;;14.00;99.90;;;;;;7369943;19;108443;-88
2022/11/03 02:34:55;;;;;;;;;;;13.90;99.90;;;;;;7370792;19;108334;-87
2022/11/03 02:37:24;;;;;;;;;;;14.00;99.90;;;;;;7368485;19;108910;-87
2022/11/03 02:39:54;;;;;;;;;;;14.00;99.90;;;;;;7369209;19;107941;-88
2022/11/03 02:42:22;;;;;;;;;;;14.00;99.90;;;;;;7367043;19;110504;-89
2022/11/03 02:44:50;;;;;;;;;;;13.90;99.90;;;;;;7370829;19;109471;-90
2022/11/03 02:47:17;;;;;;;;;;;14.00;99.90;;;;;;7367607;19;108092;-89
2022/11/03 02:49:45;;;;;;;;;;;14.00;99.90;;;;;;7375564;19;109022;-89
2022/11/03 02:52:31;;;;;;;;;;;13.90;99.90;;;;;;7367247;19;108676;-90
2022/11/03 02:54:59;;;;;;;;;;;13.90;99.90;;;;;;7370725;19;109196;-89
2022/11/03 02:57:28;;;;;;;;;;;13.90;99.90;;;;;;7367992;19;108842;-89
2022/11/03 02:59:58;;;;;;;;;;;14.00;99.90;;;;;;7367323;19;108258;-90
2022/11/03 03:02:36;;;;;;;;;;;13.90;99.90;;;;;;7368573;19;107423;-90
2022/11/03 03:05:06;;;;;;;;;;;13.90;99.90;;;;;;7368289;19;110572;-89
2022/11/03 03:07:35;;;;;;;;;;;13.90;99.90;;;;;;7368783;19;107798;-89
2022/11/03 03:10:11;;;;;;;;;;;13.90;99.90;;;;;;7372473;19;110533;-90
2022/11/03 03:12:40;;;;;;;;;;;13.80;99.90;;;;;;7368432;19;111684;-89
2022/11/03 03:15:07;;;;;;;;;;;13.90;99.90;;;;;;7342488;19;108620;-88
2022/11/03 03:17:41;;;;;;;;;;;13.80;99.90;;;;;;7337793;19;109774;-89
2022/11/03 03:20:13;;;;;;;;;;;13.80;99.90;;;;;;7337169;19;113102;-88
2022/11/03 03:22:46;;;;;;;;;;;13.80;99.90;;;;;;7339719;19;109073;-88
2022/11/03 03:25:15;;;;;;;;;;;13.80;99.90;;;;;;7338015;19;111039;-88
2022/11/03 03:27:44;;;;;;;;;;;13.70;99.90;;;;;;7340590;19;108482;-89
2022/11/03 03:30:12;;;;;;;;;;;13.70;99.90;;;;;;7340940;19;111590;-88
2022/11/03 03:32:40;;;;;;;;;;;13.70;99.90;;;;;;7343282;19;109807;-88
2022/11/03 03:35:08;;;;;;;;;;;13.70;99.90;;;;;;7337633;19;108288;-88
2022/11/03 03:37:38;;;;;;;;;;;13.70;99.90;;;;;;7338810;19;113666;-89
2022/11/03 03:40:07;;;;;;;;;;;13.60;99.90;;;;;;7338692;19;108912;-87
2022/11/03 03:42:36;;;;;;;;;;;13.60;99.90;;;;;;7344291;19;109146;-89
2022/11/03 03:45:05;;;;;;;;;;;13.70;99.90;;;;;;7345166;19;110833;-90
2022/11/03 03:47:33;;;;;;;;;;;13.70;99.90;;;;;;7343777;19;108587;-87
2022/11/03 03:50:00;;;;;;;;;;;13.70;99.90;;;;;;7346035;19;108541;-90
2022/11/03 03:52:28;;;;;;;;;;;13.60;99.90;;;;;;7344003;19;110311;-89
2022/11/03 03:54:55;;;;;;;;;;;13.70;99.90;;;;;;7355990;19;108375;-91
2022/11/03 03:57:23;;;;;;;;;;;13.70;99.90;;;;;;7345717;19;110227;-88
2022/11/03 03:59:50;;;;;;;;;;;13.70;99.90;;;;;;7344498;19;108690;-88
2022/11/03 04:02:17;;;;;;;;;;;13.80;99.90;;;;;;7339864;19;111961;-88
2022/11/03 04:04:44;;;;;;;;;;;13.70;99.90;;;;;;7343301;19;111168;-88
2022/11/03 04:09:56;;;;;;;;;;;13.70;99.90;;;;;;7345180;19;109867;-89
2022/11/03 04:23:28;;;;;;;;;;;13.60;99.90;;;;;;7344843;19;109065;-88
2022/11/03 04:25:55;;;;;;;;;;;13.60;99.90;;;;;;7344622;19;110649;-89
2022/11/03 04:28:24;;;;;;;;;;;13.60;99.90;;;;;;7341986;19;108459;-88
2022/11/03 04:30:55;;;;;;;;;;;13.50;99.90;;;;;;7344391;19;108809;-89
2022/11/03 04:33:25;;;;;;;;;;;13.60;99.90;;;;;;7341416;19;110434;-88
2022/11/03 04:35:52;;;;;;;;;;;13.60;99.90;;;;;;7344016;19;108872;-89
2022/11/03 04:38:21;;;;;;;;;;;13.50;99.90;;;;;;7342522;19;110146;-89
2022/11/03 04:40:55;;;;;;;;;;;13.50;99.90;;;;;;7349205;19;112519;-89
2022/11/03 04:43:28;;;;;;;;;;;13.40;99.90;;;;;;7342075;19;108936;-88
2022/11/03 04:45:55;;;;;;;;;;;13.40;99.90;;;;;;7341152;19;110693;-88
2022/11/03 04:48:23;;;;;;;;;;;13.40;99.90;;;;;;7344498;19;108749;-88
2022/11/03 04:50:54;;;;;;;;;;;13.40;99.90;;;;;;7344888;19;109645;-89
2022/11/03 04:53:22;;;;;;;;;;;13.40;99.90;;;;;;7340640;19;109668;-88
2022/11/03 04:55:51;;;;;;;;;;;13.50;99.90;;;;;;7343223;19;108289;-88
2022/11/03 04:58:22;;;;;;;;;;;13.50;99.90;;;;;;7342399;19;111950;-88
2022/11/03 05:00:50;;;;;;;;;;;13.40;99.90;;;;;;7344299;19;110521;-88
2022/11/03 05:03:28;;;;;;;;;;;13.40;99.90;;;;;;7348857;19;108993;-89
2022/11/03 05:05:55;;;;;;;;;;;13.40;99.90;;;;;;7340143;19;111824;-88
2022/11/03 05:08:23;;;;;;;;;;;13.40;99.90;;;;;;7343757;19;108835;-90
2022/11/03 05:10:49;;;;;;;;;;;13.40;99.90;;;;;;7342057;19;108656;-89
2022/11/03 05:13:21;;;;;;;;;;;13.40;99.90;;;;;;7343343;19;108784;-89
2022/11/03 05:15:50;;;;;;;;;;;13.40;99.90;;;;;;7344746;19;108706;-89
2022/11/03 05:18:20;;;;;;;;;;;13.40;99.90;;;;;;7342985;19;108928;-88
2022/11/03 05:20:48;;;;;;;;;;;13.40;99.90;;;;;;7343545;19;109278;-88
2022/11/03 05:23:16;;;;;;;;;;;13.40;99.90;;;;;;7349499;19;108419;-89
2022/11/03 05:25:46;;;;;;;;;;;13.50;99.90;;;;;;7340709;19;110453;-89
2022/11/03 05:28:21;;;;;;;;;;;13.50;99.90;;;;;;7339395;19;108329;-89
2022/11/03 05:30:48;;;;;;;;;;;13.50;99.90;;;;;;7341849;19;109135;-88
2022/11/03 05:33:25;;;;;;;;;;;13.50;99.90;;;;;;7339862;19;112786;-88
2022/11/03 05:35:52;;;;;;;;;;;13.50;99.90;;;;;;7343317;19;108451;-89
2022/11/03 05:38:20;;;;;;;;;;;13.50;99.90;;;;;;7341255;19;109283;-90
2022/11/03 05:40:52;;;;;;;;;;;13.50;99.90;;;;;;7341231;19;110897;-88
2022/11/03 05:43:19;;;;;;;;;;;13.50;99.90;;;;;;7340818;19;108475;-89
2022/11/03 05:45:49;;;;;;;;;;;13.50;99.90;;;;;;7345332;19;108985;-90
2022/11/03 05:48:36;;;;;;;;;;;13.60;99.90;;;;;;7340117;19;108492;-89
2022/11/03 05:51:11;;;;;;;;;;;13.60;99.90;;;;;;7340193;19;114830;-88
2022/11/03 05:53:42;;;;;;;;;;;13.60;99.90;;;;;;7340249;19;114283;-89
2022/11/03 05:56:14;;;;;;;;;;;13.60;99.90;;;;;;7342366;19;108850;-88
2022/11/03 05:58:41;;;;;;;;;;;13.60;99.90;;;;;;7339485;19;109108;-88
2022/11/03 06:01:17;;;;;;;;;;;13.60;99.90;;;;;;7343984;19;109368;-88
2022/11/03 06:03:45;;;;;;;;;;;13.60;99.90;;;;;;7342685;19;108423;-89
2022/11/03 06:06:19;;;;;;;;;;;13.60;99.90;;;;;;7341899;19;109775;-89
2022/11/03 06:08:46;;;;;;;;;;;13.70;99.90;;;;;;7347967;19;110043;-87
2022/11/03 06:11:27;;;;;;;;;;;13.70;99.90;;;;;;7341360;19;109281;-88
2022/11/03 06:13:54;;;;;;;;;;;13.70;99.90;;;;;;7341236;19;109801;-88
2022/11/03 06:16:30;;;;;;;;;;;13.70;99.90;;;;;;7337909;19;108506;-88
2022/11/03 06:18:59;;;;;;;;;;;13.70;99.90;;;;;;7340876;19;109259;-87
2022/11/03 06:21:26;;;;;;;;;;;13.70;99.90;;;;;;7338435;19;111498;-89
2022/11/03 06:23:54;;;;;;;;;;;13.70;99.90;;;;;;7342142;19;108481;-90
2022/11/03 06:26:25;;;;;;;;;;;13.70;99.90;;;;;;7343494;19;109476;-88
2022/11/03 06:28:52;;;;;;;;;;;13.70;99.90;;;;;;7344698;19;112604;-89
2022/11/03 06:31:21;;;;;;;;;;;13.80;99.90;;;;;;7346425;19;109283;-90
2022/11/03 06:33:50;;;;;;;;;;;13.80;99.90;;;;;;7339136;19;111667;-89
2022/11/03 06:36:21;;;;;;;;;;;13.80;99.90;;;;;;7341777;19;108601;-89
2022/11/03 06:39:08;;;;;;;;;;;13.80;99.90;;;;;;7342067;19;109507;-90
2022/11/03 06:41:35;;;;;;;;;;;13.80;99.90;;;;;;7338229;19;109238;-89
2022/11/03 06:44:18;;;;;;;;;;;13.70;99.90;;;;;;7341148;19;108370;-89
2022/11/03 06:46:44;;;;;;;;;;;13.70;99.90;;;;;;7344036;19;109477;-89
2022/11/03 06:49:26;;;;;;;;;;;13.80;99.90;;;;;;7341904;19;111158;-89
2022/11/03 06:51:54;;;;;;;;;;;13.80;99.90;;;;;;7343023;19;109393;-89
2022/11/03 06:54:21;;;;;;;;;;;13.80;99.90;;;;;;7346205;19;108385;-91
2022/11/03 06:56:47;;;;;;;;;;;13.80;99.90;;;;;;7341762;19;111889;-91
2022/11/03 06:59:15;;;;;;;;;;;13.80;99.90;;;;;;7342367;19;108944;-90
2022/11/03 07:01:44;;;;;;;;;;;13.90;99.90;;;;;;7341441;19;110743;-90
2022/11/03 07:04:19;;;;;;;;;;;13.90;99.90;;;;;;7341621;19;108400;-90
2022/11/03 07:06:47;;;;;;;;;;;13.90;99.90;;;;;;7342062;19;109658;-90
2022/11/03 07:09:21;;;;;;;;;;;13.90;99.90;;;;;;7339702;19;111245;-88
2022/11/03 07:11:49;;;;;;;;;;;13.90;99.90;;;;;;7342997;19;108709;-90
2022/11/03 07:14:18;;;;;;;;;;;13.90;99.90;;;;;;7346866;19;112156;-91
2022/11/03 07:16:46;;;;;;;;;;;13.90;99.90;;;;;;7347173;19;108583;-91
2022/11/03 07:19:16;;;;;;;;;;;13.90;99.90;;;;;;7351843;19;109942;-92
2022/11/03 07:21:44;;;;;;;;;;;13.90;99.90;;;;;;7351855;19;110066;-92
2022/11/03 07:24:17;;;;;;;;;;;14.00;99.90;;;;;;7351737;19;108892;-91
2022/11/03 07:26:44;;;;;;;;;;;14.00;99.90;;;;;;7352901;19;108907;-91
2022/11/03 07:29:15;;;;;;;;;;;14.00;99.90;;;;;;7350083;19;110180;-92
2022/11/03 07:31:42;;;;;;;;;;;14.00;99.90;;;;;;7349379;19;108976;-91
2022/11/03 07:34:12;;;;;;;;;;;14.00;99.90;;;;;;7351734;19;109504;-93
2022/11/03 07:36:39;;;;;;;;;;;14.10;99.90;;;;;;7357574;19;110008;-91
2022/11/03 07:39:10;;;;;;;;;;;14.10;99.90;;;;;;7351548;19;108490;-91
2022/11/03 07:41:37;;;;;;;;;;;14.10;99.90;;;;;;7347738;19;109214;-91
2022/11/03 07:44:04;;;;;;;;;;;14.10;99.90;;;;;;7350482;19;108780;-91
2022/11/03 07:46:31;;;;;;;;;;;14.00;99.90;;;;;;7348665;19;110004;-92
2022/11/03 07:49:00;;;;;;;;;;;14.00;99.90;;;;;;7347674;19;110475;-91
2022/11/03 07:51:33;;;;;;;;;;;14.10;99.90;;;;;;7349885;19;108788;-92
2022/11/03 07:54:14;;;;;;;;;;;14.10;99.90;;;;;;7347810;19;110642;-90
2022/11/03 07:56:42;;;;;;;;;;;14.10;99.90;;;;;;7345796;19;110767;-90
2022/11/03 07:59:10;;;;;;;;;;;14.10;99.90;;;;;;7352047;19;108351;-89
2022/11/03 08:01:40;;;;;;;;;;;14.10;99.90;;;;;;7346127;19;109622;-89
2022/11/03 08:04:09;;;;;;;;;;;14.10;99.90;;;;;;7347723;19;108836;-90
2022/11/03 08:06:36;;;;;;;;;;;14.10;99.90;;;;;;7345975;19;109508;-90
2022/11/03 08:09:03;;;;;;;;;;;14.10;99.90;;;;;;7346110;19;109524;-90
2022/11/03 08:11:30;;;;;;;;;;;14.20;99.90;;;;;;7346486;19;108844;-89
2022/11/03 08:13:57;;;;;;;;;;;14.20;99.90;;;;;;7346307;19;108837;-89
2022/11/03 08:16:24;;;;;;;;;;;14.20;99.90;;;;;;7345803;19;113058;-89
2022/11/03 08:18:51;;;;;;;;;;;14.20;99.90;;;;;;7348529;19;108262;-89
2022/11/03 08:21:18;;;;;;;;;;;14.20;99.90;;;;;;7349151;19;109657;-89
2022/11/03 08:23:45;;;;;;;;;;;14.20;99.90;;;;;;7345464;19;108507;-88
2022/11/03 08:26:13;;;;;;;;;;;14.30;99.90;;;;;;7346991;19;110762;-89
2022/11/03 08:28:41;;;;;;;;;;;14.30;99.90;;;;;;7341581;19;110425;-90
2022/11/03 08:31:08;;;;;;;;;;;14.30;99.90;;;;;;7346700;19;109643;-90
2022/11/03 08:33:39;;;;;;;;;;;14.30;99.90;;;;;;7345777;19;108751;-91
2022/11/03 08:36:07;;;;;;;;;;;14.30;99.90;;;;;;7347042;19;110196;-89
2022/11/03 08:38:34;;;;;;;;;;;14.30;99.90;;;;;;7344365;19;108406;-89
2022/11/03 08:41:01;;;;;;;;;;;14.40;99.90;;;;;;7346265;19;108529;-89
2022/11/03 08:43:28;;;;;;;;;;;14.40;99.90;;;;;;7351689;19;110058;-91
2022/11/03 08:45:55;;;;;;;;;;;14.40;99.90;;;;;;7349095;19;109191;-92
2022/11/03 08:48:28;;;;;;;;;;;14.40;99.90;;;;;;7346528;19;112853;-92
2022/11/03 08:50:55;;;;;;;;;;;14.40;99.90;;;;;;7346987;19;108931;-90
2022/11/03 08:53:23;;;;;;;;;;;14.40;99.90;;;;;;7347631;19;109528;-89
2022/11/03 08:55:53;;;;;;;;;;;14.50;99.90;;;;;;7345418;19;112245;-91
2022/11/03 08:58:21;;;;;;;;;;;14.50;99.90;;;;;;7347833;19;108642;-91
2022/11/03 09:00:48;;;;;;;;;;;14.50;99.90;;;;;;7347570;19;111735;-89
2022/11/03 09:03:15;;;;;;;;;;;14.50;99.90;;;;;;7346173;19;110384;-91
2022/11/03 09:05:42;;;;;;;;;;;14.50;99.90;;;;;;7349708;19;108503;-89
2022/11/03 09:08:09;;;;;;;;;;;14.60;99.90;;;;;;7344168;19;110425;-90
2022/11/03 09:10:56;;;;;;;;;;;14.70;99.90;;;;;;7348967;19;108265;-91
2022/11/03 09:13:23;;;;;;;;;;;14.70;99.90;;;;;;7345123;19;110259;-91
2022/11/03 09:15:50;;;;;;;;;;;14.70;99.90;;;;;;7348449;19;109370;-91
2022/11/03 09:18:17;;;;;;;;;;;14.80;99.90;;;;;;7347632;19;108273;-89
2022/11/03 09:20:44;;;;;;;;;;;14.80;99.90;;;;;;7347536;19;108973;-91
2022/11/03 09:23:10;;;;;;;;;;;14.70;99.90;;;;;;7344396;19;110343;-91
2022/11/03 09:25:37;;;;;;;;;;;14.70;99.90;;;;;;7351769;19;108765;-89
2022/11/03 09:28:04;;;;;;;;;;;14.70;99.90;;;;;;7345522;19;110300;-89
2022/11/03 09:30:32;;;;;;;;;;;14.70;99.90;;;;;;7345343;19;108462;-90
2022/11/03 09:32:59;;;;;;;;;;;14.70;99.90;;;;;;7345325;19;109283;-91
2022/11/03 09:35:26;;;;;;;;;;;14.70;99.90;;;;;;7344340;19;112514;-91
2022/11/03 09:37:53;;;;;;;;;;;14.70;99.90;;;;;;7346118;19;108733;-91
2022/11/03 09:40:20;;;;;;;;;;;14.70;99.90;;;;;;7342943;19;111786;-91
2022/11/03 09:42:47;;;;;;;;;;;14.70;99.90;;;;;;7345262;19;110603;-91
2022/11/03 09:45:14;;;;;;;;;;;14.70;99.90;;;;;;7345954;19;108287;-90
2022/11/03 09:47:42;;;;;;;;;;;14.70;99.90;;;;;;7348691;19;108900;-90
2022/11/03 09:50:13;;;;;;;;;;;14.70;99.90;;;;;;7344662;19;108896;-89
2022/11/03 09:52:40;;;;;;;;;;;14.70;99.90;;;;;;7345810;19;110436;-91
2022/11/03 09:55:13;;;;;;;;;;;14.70;99.90;;;;;;7347472;19;112233;-91
2022/11/03 09:57:40;;;;;;;;;;;14.80;99.90;;;;;;7343609;19;108851;-90
2022/11/03 10:00:14;;;;;;;;;;;14.90;99.90;;;;;;7344361;19;109369;-91
2022/11/03 10:02:42;;;;;;;;;;;14.90;99.90;;;;;;7345957;19;109882;-91
2022/11/03 10:05:11;;;;;;;;;;;15.10;99.90;;;;;;7345842;19;108279;-88
2022/11/03 10:07:38;;;;;;;;;;;15.10;99.90;;;;;;7346479;19;109785;-91
2022/11/03 10:10:05;;;;;;;;;;;15.20;99.90;;;;;;7350300;19;110939;-88
2022/11/03 10:12:35;;;;;;;;;;;15.30;99.90;;;;;;7345143;19;108367;-90
2022/11/03 10:15:02;;;;;;;;;;;15.40;99.90;;;;;;7345826;19;110533;-91
2022/11/03 10:17:29;;;;;;;;;;;15.40;99.90;;;;;;7346230;19;109311;-91
2022/11/03 10:19:57;;;;;;;;;;;15.40;99.90;;;;;;7347682;19;108864;-91
2022/11/03 10:22:23;;;;;;;;;;;15.40;99.90;;;;;;7348028;19;113737;-92
2022/11/03 10:25:10;;;;;;;;;;;15.50;99.90;;;;;;7346717;19;108409;-92
2022/11/03 10:27:37;;;;;;;;;;;15.50;99.90;;;;;;7346675;19;109838;-92
2022/11/03 10:30:09;;;;;;;;;;;15.60;99.90;;;;;;7346549;19;110554;-91
2022/11/03 10:32:36;;;;;;;;;;;15.70;99.90;;;;;;7353778;19;108277;-92
2022/11/03 10:35:22;;;;;;;;;;;15.70;99.90;;;;;;7348853;19;110569;-91
2022/11/03 10:37:49;;;;;;;;;;;15.80;99.90;;;;;;7349283;19;108390;-89
2022/11/03 10:40:35;;;;;;;;;;;15.80;99.90;;;;;;7353742;19;108331;-91
2022/11/03 10:43:17;;;;;;;;;;;15.80;99.90;;;;;;7370697;19;110956;-90
2022/11/03 10:45:44;;;;;;;;;;;15.80;99.90;;;;;;7372731;19;108109;-91
2022/11/03 10:48:11;;;;;;;;;;;15.80;99.90;;;;;;7371988;19;109422;-91
2022/11/03 10:50:39;;;;;;;;;;;15.80;99.90;;;;;;7368585;19;111757;-93
2022/11/03 10:53:11;;;;;;;;;;;15.80;99.90;;;;;;7377576;19;108101;-92
2022/11/03 10:55:38;;;;;;;;;;;15.90;99.90;;;;;;7382038;19;111305;-92
2022/11/03 10:58:05;;;;;;;;;;;15.80;99.90;;;;;;7378073;19;108306;-91
2022/11/03 11:00:33;;;;;;;;;;;15.90;99.90;;;;;;7376225;19;110405;-91
2022/11/03 11:03:00;;;;;;;;;;;15.90;99.90;;;;;;7375939;19;108130;-90
2022/11/03 11:05:27;;;;;;;;;;;15.90;99.90;;;;;;7375688;19;108663;-90
2022/11/03 11:07:54;;;;;;;;;;;16.00;99.90;;;;;;7376604;19;108159;-91
2022/11/03 11:10:22;;;;;;;;;;;16.00;99.90;;;;;;7376780;19;109528;-91
2022/11/03 11:13:01;;;;;;;;;;;16.00;99.90;;;;;;7377568;19;107961;-90
2022/11/03 11:15:48;;;;;;;;;;;16.10;99.90;;;;;;7376333;19;109668;-90
2022/11/03 11:18:27;;;;;;;;;;;16.00;99.90;;;;;;7381314;19;111559;-91
2022/11/03 11:20:54;;;;;;;;;;;16.10;99.90;;;;;;7377310;19;111104;-91
2022/11/03 11:23:27;;;;;;;;;;;16.10;99.90;;;;;;7376126;19;109211;-91
2022/11/03 11:26:10;;;;;;;;;;;16.10;99.90;;;;;;7379504;19;108258;-91
2022/11/03 11:28:41;;;;;;;;;;;16.20;99.90;;;;;;7376569;19;108673;-91
2022/11/03 11:31:28;;;;;;;;;;;16.30;99.90;;;;;;7376164;19;111770;-89
2022/11/03 11:34:08;;;;;;;;;;;16.20;99.90;;;;;;7375908;19;108473;-90
2022/11/03 11:36:35;;;;;;;;;;;16.30;99.90;;;;;;7375643;19;108365;-91
2022/11/03 11:39:03;;;;;;;;;;;16.40;99.90;;;;;;7381337;19;111757;-92
2022/11/03 11:41:49;;;;;;;;;;;16.40;99.90;;;;;;7372988;19;108645;-93
2022/11/03 11:44:34;;;;;;;;;;;16.40;99.90;;;;;;7373881;19;108739;-92
2022/11/03 11:47:01;;;;;;;;;;;16.50;99.90;;;;;;7377173;19;107968;-92
2022/11/03 11:49:28;;;;;;;;;;;16.50;99.90;;;;;;7375310;19;108534;-90
2022/11/03 11:51:59;;;;;;;;;;;16.60;99.90;;;;;;7374643;19;109266;-93
2022/11/03 11:54:26;;;;;;;;;;;16.60;99.90;;;;;;7351063;19;108324;-91
2022/11/03 11:56:53;;;;;;;;;;;16.60;99.90;;;;;;7350602;19;109205;-90
2022/11/03 11:59:21;;;;;;;;;;;16.60;99.90;;;;;;7349849;19;110163;-90
2022/11/03 12:01:53;;;;;;;;;;;16.60;99.90;;;;;;7355382;19;108676;-93
2022/11/03 12:04:27;;;;;;;;;;;16.70;99.90;;;;;;7348014;19;110454;-91
2022/11/03 12:06:56;;;;;;;;;;;16.80;99.90;;;;;;7352047;19;108736;-91
2022/11/03 12:09:26;;;;;;;;;;;16.80;99.90;;;;;;7347306;19;109302;-92
2022/11/03 12:11:57;;;;;;;;;;;16.80;99.90;;;;;;7348963;19;110260;-92
2022/11/03 12:14:30;;;;;;;;;;;16.80;99.90;;;;;;7349177;19;108732;-91
2022/11/03 12:16:58;;;;;;;;;;;16.90;99.90;;;;;;7348060;19;109218;-93
2022/11/03 12:19:31;;;;;;;;;;;17.00;99.90;;;;;;7348742;19;110720;-90
2022/11/03 12:21:58;;;;;;;;;;;17.00;99.90;;;;;;7350362;19;108354;-92
2022/11/03 12:24:32;;;;;;;;;;;17.10;99.90;;;;;;7351353;19;108504;-92
2022/11/03 12:26:59;;;;;;;;;;;17.10;99.90;;;;;;7348758;19;108358;-93
2022/11/03 12:29:26;;;;;;;;;;;17.20;99.90;;;;;;7347466;19;112334;-91
2022/11/03 12:31:53;;;;;;;;;;;17.20;99.90;;;;;;7348800;19;110196;-93
2022/11/03 12:34:20;;;;;;;;;;;17.20;99.90;;;;;;7350311;19;108361;-91
2022/11/03 12:36:47;;;;;;;;;;;17.10;99.90;;;;;;7349601;19;112803;-93
2022/11/03 12:39:21;;;;;;;;;;;17.10;99.90;;;;;;7347364;19;110091;-91
2022/11/03 12:41:48;;;;;;;;;;;17.10;99.90;;;;;;7348102;19;108804;-92
2022/11/03 12:44:15;;;;;;;;;;;17.10;99.90;;;;;;7350372;19;109448;-91
2022/11/03 12:46:42;;;;;;;;;;;17.10;99.90;;;;;;7352661;19;111481;-93
2022/11/03 12:49:09;;;;;;;;;;;17.00;99.90;;;;;;7346418;19;109365;-91
2022/11/03 12:51:36;;;;;;;;;;;17.00;99.90;;;;;;7346199;19;110409;-91
2022/11/03 12:54:03;;;;;;;;;;;17.00;99.90;;;;;;7348145;19;108528;-93
2022/11/03 12:56:30;;;;;;;;;;;17.00;99.90;;;;;;7348532;19;108925;-92
2022/11/03 12:58:57;;;;;;;;;;;16.90;99.90;;;;;;7349953;19;110465;-90
2022/11/03 13:01:24;;;;;;;;;;;16.80;99.90;;;;;;7348700;19;108574;-91
2022/11/03 13:03:51;;;;;;;;;;;16.80;99.90;;;;;;7349635;19;108809;-91
2022/11/03 13:06:19;;;;;;;;;;;16.70;99.90;;;;;;7347068;19;109713;-95
2022/11/03 13:08:46;;;;;;;;;;;16.60;99.90;;;;;;7354791;19;108413;-92
2022/11/03 13:14:06;;;;;;;;;;;16.60;99.90;;;;;;7347964;19;108274;-93
2022/11/03 13:16:33;;;;;;;;;;;16.50;99.90;;;;;;7347730;19;109759;-90
2022/11/03 13:18:59;;;;;;;;;;;16.50;99.90;;;;;;7347550;19;110189;-91
2022/11/03 13:21:26;;;;;;;;;;;16.50;99.90;;;;;;7345679;19;108392;-92
2022/11/03 13:23:55;;;;;;;;;;;16.30;99.90;;;;;;7347840;19;109140;-90
2022/11/03 13:26:22;;;;;;;;;;;16.20;99.90;;;;;;7344637;19;110836;-93
2022/11/03 13:28:49;;;;;;;;;;;16.10;99.90;;;;;;7352206;19;108464;-94
2022/11/03 13:31:16;;;;;;;;;;;16.20;99.90;;;;;;7370090;19;108004;-96
2022/11/03 13:33:46;;;;;;;;;;;16.20;99.90;;;;;;7368092;19;107937;-95
2022/11/03 13:36:13;;;;;;;;;;;16.20;99.90;;;;;;7361571;19;110212;-96
2022/11/03 13:38:40;;;;;;;;;;;16.20;99.90;;;;;;7349815;19;108970;-93
2022/11/03 13:41:07;;;;;;;;;;;16.10;99.90;;;;;;7359778;19;108419;-96
2022/11/03 13:43:35;;;;;;;;;;;16.00;99.90;;;;;;7364100;19;108351;-94
2022/11/03 13:46:04;;;;;;;;;;;15.90;99.90;;;;;;7370005;19;109184;-96
2022/11/03 13:48:35;;;;;;;;;;;15.90;99.90;;;;;;7370798;19;108878;-96
2022/11/03 13:51:22;;;;;;;;;;;15.90;99.90;;;;;;7371829;19;108823;-95
2022/11/03 13:53:49;;;;;;;;;;;15.90;99.90;;;;;;7366286;19;108427;-96
2022/11/03 13:56:36;;;;;;;;;;;15.90;99.90;;;;;;7363165;19;108905;-96
2022/11/03 13:59:23;;;;;;;;;;;15.90;99.90;;;;;;7369432;19;108108;-96
2022/11/03 14:01:50;;;;;;;;;;;15.90;99.90;;;;;;7352978;19;108097;-96
2022/11/03 14:04:40;;;;;;;;;;;15.90;99.90;;;;;;7354149;19;108638;-96
2022/11/03 14:07:09;;;;;;;;;;;15.90;99.90;;;;;;7354161;19;108778;-93
2022/11/03 14:09:36;;;;;;;;;;;15.80;99.90;;;;;;7356480;19;108412;-95
2022/11/03 14:14:49;;;;;;;;;;;15.80;99.90;;;;;;7368829;19;109041;-96
2022/11/03 14:17:16;;;;;;;;;;;15.80;99.90;;;;;;7363843;19;110322;-96
2022/11/03 14:19:43;;;;;;;;;;;15.80;99.90;;;;;;7359980;19;112307;-94
2022/11/03 14:22:20;;;;;;;;;;;15.70;99.90;;;;;;7363055;19;108361;-95
2022/11/03 14:24:50;;;;;;;;;;;15.70;99.90;;;;;;7359797;19;108840;-95
2022/11/03 14:27:18;;;;;;;;;;;15.70;99.90;;;;;;7361230;19;109219;-96
2022/11/03 14:29:48;;;;;;;;;;;15.70;99.90;;;;;;7351956;19;108818;-94
2022/11/03 14:32:16;;;;;;;;;;;15.70;99.90;;;;;;7367551;19;109331;-96
2022/11/03 14:34:46;;;;;;;;;;;15.70;99.90;;;;;;7360321;19;111993;-96
2022/11/03 14:37:16;;;;;;;;;;;15.70;99.90;;;;;;7367044;19;108355;-96
2022/11/03 14:39:46;;;;;;;;;;;15.70;99.90;;;;;;7363304;19;112118;-94
2022/11/03 14:42:16;;;;;;;;;;;15.80;99.90;;;;;;7367712;19;108283;-96